Time;durP1;ratioP1;P1;durP2;ratioP2;P2;SDS_P1;SDS_P2;PMS_P1;PMS_P2;Temp;Humidity;BMP_temperature;BMP_pressure;BME280_temperature;BME280_humidity;BME280_pressure;Samples;Min_cycle;Max_cycle;Signal;HPM_P1;HPM_P2
2021/01/20 00:02:02;;;;;;;;;;;20.10;88.80;;;;;;4994568;28;19937;-80
2021/01/20 00:07:31;;;;;;;;;;;20.00;87.70;;;;;;4973945;28;19976;-81
2021/01/20 00:13:01;;;;;;;;;;;20.10;90.00;;;;;;4992949;28;19920;-80
2021/01/20 00:18:31;;;;;;;;;;;20.20;87.00;;;;;;5014935;28;19929;-82
2021/01/20 00:24:04;;;;;;;;;;;20.20;86.80;;;;;;4987091;28;19921;-81
2021/01/20 00:29:37;;;;;;;;;;;20.10;86.80;;;;;;5007232;28;19933;-83
2021/01/20 00:35:08;;;;;;;;;;;20.20;87.70;;;;;;5005484;28;20036;-77
2021/01/20 00:40:45;;;;;;;;;;;20.40;86.70;;;;;;5009873;28;20040;-84
2021/01/20 00:46:15;;;;;;;;;;;20.40;86.60;;;;;;5007061;28;19920;-80
2021/01/20 00:51:45;;;;;;;;;;;20.50;86.40;;;;;;5003118;28;19932;-78
2021/01/20 01:00:18;;;;;;;;;;;20.60;87.00;;;;;;4992834;28;20331;-79
2021/01/20 01:02:45;;;;;;;;;;;20.60;86.00;;;;;;4989496;28;19914;-79
2021/01/20 01:05:12;;;;;;;;;;;20.70;87.20;;;;;;4987490;28;19914;-80
2021/01/20 01:07:39;;;;;;;;;;;20.70;84.00;;;;;;4990805;28;20414;-81
2021/01/20 01:10:06;;;;;;;;;;;20.70;84.90;;;;;;4992670;28;19972;-84
2021/01/20 01:12:32;;;;;;;;;;;20.70;84.70;;;;;;4992555;28;19920;-82
2021/01/20 01:14:59;;;;;;;;;;;20.70;84.40;;;;;;4982762;28;19936;-79
2021/01/20 01:17:26;;;;;;;;;;;20.70;85.70;;;;;;4985956;28;20477;-80
2021/01/20 01:19:52;;;;;;;;;;;20.80;85.40;;;;;;4988081;28;19926;-80
2021/01/20 01:22:19;;;;;;;;;;;20.80;86.50;;;;;;4987861;28;20379;-79
2021/01/20 01:24:45;;;;;;;;;;;21.00;86.40;;;;;;4985655;28;20660;-80
2021/01/20 01:27:12;;;;;;;;;;;20.90;85.10;;;;;;4988973;28;19922;-79
2021/01/20 01:29:39;;;;;;;;;;;21.00;85.20;;;;;;4995454;28;19925;-79
2021/01/20 01:32:06;;;;;;;;;;;21.00;85.20;;;;;;4995535;28;20000;-80
2021/01/20 01:34:33;;;;;;;;;;;21.10;83.50;;;;;;5002156;28;19908;-79
2021/01/20 01:37:00;;;;;;;;;;;21.10;83.90;;;;;;5006414;28;20346;-79
2021/01/20 01:39:27;;;;;;;;;;;21.10;83.00;;;;;;4994135;28;19959;-80
2021/01/20 01:41:53;;;;;;;;;;;21.10;83.80;;;;;;4994796;28;19917;-80
2021/01/20 01:44:21;;;;;;;;;;;21.10;82.80;;;;;;4995201;28;19937;-79
2021/01/20 01:46:48;;;;;;;;;;;21.20;83.10;;;;;;4995540;28;19914;-80
2021/01/20 01:49:14;;;;;;;;;;;21.10;83.20;;;;;;4995533;28;19944;-80
2021/01/20 01:51:41;;;;;;;;;;;21.10;83.50;;;;;;4993906;28;19914;-79
2021/01/20 01:54:08;;;;;;;;;;;21.10;83.60;;;;;;4994110;28;19922;-81
2021/01/20 01:56:35;;;;;;;;;;;21.20;83.70;;;;;;4995470;28;19925;-81
2021/01/20 01:59:02;;;;;;;;;;;21.20;82.40;;;;;;4996262;28;20241;-79
2021/01/20 02:01:29;;;;;;;;;;;21.00;81.90;;;;;;4994283;28;19918;-80
2021/01/20 02:03:56;;;;;;;;;;;21.00;83.10;;;;;;4994563;28;20388;-78
2021/01/20 02:06:22;;;;;;;;;;;20.90;81.50;;;;;;4993267;28;19964;-78
2021/01/20 02:08:50;;;;;;;;;;;21.00;82.00;;;;;;4991872;28;19924;-78
2021/01/20 02:11:25;;;;;;;;;;;21.00;82.60;;;;;;4992714;28;19922;-80
2021/01/20 02:14:08;;;;;;;;;;;21.00;83.90;;;;;;4990960;28;19937;-80
2021/01/20 02:16:38;;;;;;;;;;;21.00;82.40;;;;;;4994709;28;20402;-80
2021/01/20 02:19:09;;;;;;;;;;;21.10;83.30;;;;;;4993548;28;19937;-80
2021/01/20 02:21:38;;;;;;;;;;;21.00;82.40;;;;;;4994437;28;19957;-81
2021/01/20 02:24:08;;;;;;;;;;;21.00;82.00;;;;;;4990703;28;20276;-78
2021/01/20 02:26:57;;;;;;;;;;;21.00;82.90;;;;;;4968201;28;20249;-80
2021/01/20 02:29:56;;;;;;;;;;;21.00;82.10;;;;;;4982525;28;19922;-80
2021/01/20 02:32:23;;;;;;;;;;;21.10;81.90;;;;;;4988487;28;19928;-81
2021/01/20 02:34:51;;;;;;;;;;;21.10;81.10;;;;;;4990647;28;19914;-79
2021/01/20 02:37:18;;;;;;;;;;;21.20;82.10;;;;;;4990193;28;19938;-80
2021/01/20 02:39:45;;;;;;;;;;;21.20;80.90;;;;;;4991652;28;20386;-81
2021/01/20 02:42:12;;;;;;;;;;;21.30;81.80;;;;;;4993644;28;20364;-80
2021/01/20 02:44:39;;;;;;;;;;;21.30;79.90;;;;;;4993825;28;19920;-80
2021/01/20 02:47:10;;;;;;;;;;;21.40;80.10;;;;;;4993645;28;19921;-81
2021/01/20 02:49:37;;;;;;;;;;;21.50;79.70;;;;;;4969607;28;19928;-79
2021/01/20 02:52:16;;;;;;;;;;;21.40;80.00;;;;;;4988907;28;19957;-81
2021/01/20 02:54:43;;;;;;;;;;;21.50;81.00;;;;;;4992920;28;19926;-80
2021/01/20 02:57:10;;;;;;;;;;;21.60;79.40;;;;;;4994128;28;19914;-81
2021/01/20 02:59:38;;;;;;;;;;;21.70;79.30;;;;;;4991138;28;19920;-79
2021/01/20 03:02:09;;;;;;;;;;;21.70;78.70;;;;;;4972624;28;19925;-81
2021/01/20 03:04:36;;;;;;;;;;;21.70;77.70;;;;;;4991635;28;19934;-81
2021/01/20 03:07:03;;;;;;;;;;;21.80;77.90;;;;;;4987913;28;19920;-77
2021/01/20 03:09:30;;;;;;;;;;;21.70;78.90;;;;;;4989243;28;19917;-79
2021/01/20 03:11:56;;;;;;;;;;;21.70;78.30;;;;;;4989485;28;19926;-78
2021/01/20 03:14:25;;;;;;;;;;;21.70;78.70;;;;;;4992494;28;19910;-79
2021/01/20 03:16:52;;;;;;;;;;;21.70;79.80;;;;;;4994471;28;19910;-77
2021/01/20 03:19:18;;;;;;;;;;;21.70;77.90;;;;;;4992957;28;19914;-86
2021/01/20 03:21:51;;;;;;;;;;;21.70;79.50;;;;;;4990818;28;19929;-78
2021/01/20 03:24:17;;;;;;;;;;;21.80;78.00;;;;;;4977374;28;19925;-79
2021/01/20 03:26:44;;;;;;;;;;;22.00;77.60;;;;;;4989589;28;19914;-79
2021/01/20 03:29:11;;;;;;;;;;;21.90;77.10;;;;;;4986714;28;20988;-85
2021/01/20 03:31:38;;;;;;;;;;;21.90;76.20;;;;;;4990172;28;19932;-82
2021/01/20 03:34:04;;;;;;;;;;;21.80;76.20;;;;;;4984340;28;19917;-80
2021/01/20 03:36:31;;;;;;;;;;;21.70;76.80;;;;;;4991162;28;20626;-79
2021/01/20 03:38:58;;;;;;;;;;;21.80;77.70;;;;;;4988909;28;20372;-85
2021/01/20 03:41:24;;;;;;;;;;;21.80;76.30;;;;;;4992770;28;19996;-83
2021/01/20 03:43:52;;;;;;;;;;;21.80;76.60;;;;;;4991399;28;19918;-80
2021/01/20 03:46:19;;;;;;;;;;;21.80;76.80;;;;;;4990808;28;19914;-84
2021/01/20 03:48:46;;;;;;;;;;;21.80;76.40;;;;;;4994938;28;19913;-83
2021/01/20 03:51:12;;;;;;;;;;;21.80;77.50;;;;;;4987392;28;19949;-77
2021/01/20 03:53:39;;;;;;;;;;;21.80;77.80;;;;;;4993598;28;19991;-78
2021/01/20 03:56:05;;;;;;;;;;;21.90;76.50;;;;;;4988177;28;20390;-82
2021/01/20 03:58:32;;;;;;;;;;;21.80;76.90;;;;;;4988025;28;20302;-81
2021/01/20 04:00:59;;;;;;;;;;;22.00;77.10;;;;;;4993278;28;19914;-83
2021/01/20 04:03:25;;;;;;;;;;;22.00;77.70;;;;;;4994168;28;20351;-84
2021/01/20 04:05:52;;;;;;;;;;;22.10;77.20;;;;;;4994439;28;20293;-81
2021/01/20 04:08:19;;;;;;;;;;;22.10;77.50;;;;;;4996675;28;20052;-78
2021/01/20 04:10:45;;;;;;;;;;;22.00;77.80;;;;;;4975797;28;19926;-85
2021/01/20 04:13:12;;;;;;;;;;;22.00;78.50;;;;;;4993857;28;19914;-78
2021/01/20 04:15:39;;;;;;;;;;;21.90;77.60;;;;;;4975149;28;19914;-78
2021/01/20 04:18:05;;;;;;;;;;;21.90;76.80;;;;;;4993600;28;19949;-79
2021/01/20 04:20:32;;;;;;;;;;;21.90;77.50;;;;;;4975906;28;19921;-80
2021/01/20 04:22:59;;;;;;;;;;;21.80;77.20;;;;;;4993807;28;20371;-82
2021/01/20 04:25:25;;;;;;;;;;;21.70;77.40;;;;;;4992516;28;20349;-81
2021/01/20 04:27:52;;;;;;;;;;;21.80;76.70;;;;;;4993866;28;20364;-80
2021/01/20 04:30:19;;;;;;;;;;;21.90;77.50;;;;;;4993322;28;19933;-79
2021/01/20 04:32:45;;;;;;;;;;;21.90;76.20;;;;;;4993126;28;19922;-82
2021/01/20 04:35:13;;;;;;;;;;;22.00;77.60;;;;;;4992557;28;19957;-83
2021/01/20 04:37:40;;;;;;;;;;;22.10;77.00;;;;;;4993567;28;19914;-80
2021/01/20 04:40:07;;;;;;;;;;;21.90;76.40;;;;;;4993104;28;19916;-83
2021/01/20 04:42:34;;;;;;;;;;;21.90;76.60;;;;;;4993417;28;19920;-81
2021/01/20 04:45:00;;;;;;;;;;;21.90;77.80;;;;;;4986528;28;19980;-79
2021/01/20 04:47:33;;;;;;;;;;;21.90;75.40;;;;;;4974283;28;19929;-82
2021/01/20 04:49:59;;;;;;;;;;;21.90;76.30;;;;;;4994917;28;19918;-84
2021/01/20 04:52:27;;;;;;;;;;;21.90;76.20;;;;;;4996682;28;19968;-78
2021/01/20 04:54:57;;;;;;;;;;;21.90;76.20;;;;;;4988898;28;19922;-80
2021/01/20 04:57:24;;;;;;;;;;;21.90;75.60;;;;;;4986890;28;19914;-81
2021/01/20 04:59:50;;;;;;;;;;;21.80;75.70;;;;;;4986491;28;19914;-80
2021/01/20 05:02:18;;;;;;;;;;;21.90;77.10;;;;;;4994818;28;19914;-80
2021/01/20 05:04:45;;;;;;;;;;;21.90;76.20;;;;;;4985071;28;19925;-79
2021/01/20 05:07:13;;;;;;;;;;;21.90;76.80;;;;;;4996654;28;19967;-80
2021/01/20 05:09:40;;;;;;;;;;;22.00;76.30;;;;;;4990977;28;20403;-85
2021/01/20 05:12:07;;;;;;;;;;;22.00;76.40;;;;;;4989987;28;19945;-86
2021/01/20 05:14:41;;;;;;;;;;;22.00;75.50;;;;;;4995196;28;20045;-80
2021/01/20 05:17:08;;;;;;;;;;;21.90;75.50;;;;;;4990422;28;20056;-81
2021/01/20 05:19:38;;;;;;;;;;;21.90;77.10;;;;;;4988132;28;19929;-85
2021/01/20 05:22:06;;;;;;;;;;;21.90;77.20;;;;;;4990267;28;19914;-80
2021/01/20 05:24:33;;;;;;;;;;;21.90;78.30;;;;;;4961907;28;19988;-79
2021/01/20 05:27:00;;;;;;;;;;;21.90;77.80;;;;;;4990257;28;19914;-79
2021/01/20 05:30:00;;;;;;;;;;;21.80;78.40;;;;;;4978984;28;19922;-82
2021/01/20 05:32:20;;;;;;;;;;;21.80;77.60;;;;;;4992664;28;19960;-86
2021/01/20 05:35:06;;;;;;;;;;;21.80;77.40;;;;;;4977440;28;19932;-82
2021/01/20 05:37:45;;;;;;;;;;;21.90;77.30;;;;;;4994671;28;19921;-84
2021/01/20 05:40:13;;;;;;;;;;;21.90;77.70;;;;;;4995161;28;20323;-79
2021/01/20 05:42:44;;;;;;;;;;;21.90;78.00;;;;;;4996498;28;20360;-78
2021/01/20 05:45:11;;;;;;;;;;;21.90;78.30;;;;;;4995861;28;20325;-81
2021/01/20 05:47:37;;;;;;;;;;;22.00;78.00;;;;;;4983943;28;20287;-84
2021/01/20 05:50:08;;;;;;;;;;;21.90;77.10;;;;;;4993484;28;19944;-81
2021/01/20 05:52:34;;;;;;;;;;;22.00;77.80;;;;;;4996210;28;19928;-81
2021/01/20 05:55:11;;;;;;;;;;;21.90;76.60;;;;;;4995631;28;20333;-80
2021/01/20 05:57:38;;;;;;;;;;;21.90;76.50;;;;;;4994683;28;19920;-80
2021/01/20 06:00:15;;;;;;;;;;;21.90;77.20;;;;;;4985573;28;19920;-83
2021/01/20 06:02:42;;;;;;;;;;;21.80;76.70;;;;;;4989336;28;20324;-81
2021/01/20 06:05:10;;;;;;;;;;;21.70;77.00;;;;;;4994582;28;20270;-79
2021/01/20 06:07:39;;;;;;;;;;;21.60;77.40;;;;;;4995977;28;19914;-79
2021/01/20 06:10:06;;;;;;;;;;;21.60;77.10;;;;;;4993239;28;20327;-86
2021/01/20 06:12:33;;;;;;;;;;;21.60;77.30;;;;;;4995826;28;19983;-79
2021/01/20 06:15:00;;;;;;;;;;;21.70;77.70;;;;;;4995651;28;19961;-79
2021/01/20 06:17:36;;;;;;;;;;;21.70;77.30;;;;;;4995715;28;19918;-80
2021/01/20 06:20:04;;;;;;;;;;;21.70;77.50;;;;;;4996353;28;20012;-82
2021/01/20 06:22:32;;;;;;;;;;;21.80;77.50;;;;;;4995765;28;19918;-79
2021/01/20 06:25:08;;;;;;;;;;;21.70;77.30;;;;;;4980846;28;19921;-78
2021/01/20 06:27:38;;;;;;;;;;;21.70;77.10;;;;;;5000108;28;19964;-78
2021/01/20 06:30:07;;;;;;;;;;;21.70;77.20;;;;;;5006231;28;19902;-79
2021/01/20 06:32:34;;;;;;;;;;;21.60;77.80;;;;;;5002271;28;20037;-83
2021/01/20 06:35:01;;;;;;;;;;;21.60;77.20;;;;;;4995218;28;19957;-84
2021/01/20 06:37:34;;;;;;;;;;;21.50;77.50;;;;;;4995752;28;20261;-81
2021/01/20 06:40:01;;;;;;;;;;;21.50;78.40;;;;;;4995626;28;19910;-79
2021/01/20 06:42:32;;;;;;;;;;;21.40;77.10;;;;;;4995198;28;19996;-82
2021/01/20 06:45:17;;;;;;;;;;;21.50;77.70;;;;;;4994563;28;19921;-80
2021/01/20 06:47:59;;;;;;;;;;;21.50;78.10;;;;;;4994175;28;19961;-80
2021/01/20 06:50:31;;;;;;;;;;;21.70;77.70;;;;;;4995704;28;19929;-78
2021/01/20 06:53:04;;;;;;;;;;;21.60;77.70;;;;;;4994128;28;19944;-80
2021/01/20 06:55:35;;;;;;;;;;;21.60;78.00;;;;;;4993805;28;19914;-78
2021/01/20 06:58:21;;;;;;;;;;;21.50;78.00;;;;;;4994814;28;19969;-78
2021/01/20 07:00:59;;;;;;;;;;;21.50;77.10;;;;;;4996720;28;19914;-83
2021/01/20 07:03:39;;;;;;;;;;;21.40;77.50;;;;;;4994029;28;19917;-81
2021/01/20 07:06:25;;;;;;;;;;;21.40;78.60;;;;;;4994463;28;20367;-82
2021/01/20 07:08:55;;;;;;;;;;;21.40;78.10;;;;;;4993668;28;20335;-81
2021/01/20 07:11:23;;;;;;;;;;;21.40;78.50;;;;;;4994689;28;19925;-84
2021/01/20 07:13:49;;;;;;;;;;;21.30;78.30;;;;;;4995206;28;19910;-82
2021/01/20 07:16:17;;;;;;;;;;;21.30;78.60;;;;;;4994347;28;19945;-81
2021/01/20 07:18:47;;;;;;;;;;;21.30;78.20;;;;;;4993936;28;20001;-79
2021/01/20 07:21:14;;;;;;;;;;;21.30;78.60;;;;;;4988504;28;19949;-79
2021/01/20 07:23:41;;;;;;;;;;;21.30;79.50;;;;;;5000140;28;19960;-78
2021/01/20 07:26:08;;;;;;;;;;;21.30;79.80;;;;;;4992973;28;20385;-77
2021/01/20 07:28:36;;;;;;;;;;;21.40;80.00;;;;;;4993752;28;19914;-79
2021/01/20 07:31:12;;;;;;;;;;;21.40;79.50;;;;;;4992997;28;20373;-79
2021/01/20 07:33:53;;;;;;;;;;;21.40;79.40;;;;;;4993377;28;19928;-79
2021/01/20 07:36:21;;;;;;;;;;;21.40;79.30;;;;;;4976965;28;20029;-80
2021/01/20 07:38:48;;;;;;;;;;;21.30;78.50;;;;;;4994320;28;19913;-78
2021/01/20 07:41:15;;;;;;;;;;;21.30;78.20;;;;;;4993979;28;19964;-83
2021/01/20 07:43:42;;;;;;;;;;;21.10;79.30;;;;;;4993025;28;19920;-84
2021/01/20 07:46:15;;;;;;;;;;;21.10;78.90;;;;;;4992229;28;19914;-79
2021/01/20 07:48:42;;;;;;;;;;;21.10;80.40;;;;;;4992444;28;20367;-78
2021/01/20 07:51:14;;;;;;;;;;;21.10;80.50;;;;;;4993420;28;19929;-80
2021/01/20 07:53:40;;;;;;;;;;;21.00;79.50;;;;;;4991528;28;19922;-82
2021/01/20 07:56:07;;;;;;;;;;;21.00;79.30;;;;;;4992600;28;19979;-79
2021/01/20 07:58:34;;;;;;;;;;;20.80;79.80;;;;;;4990973;28;19917;-77
2021/01/20 08:01:00;;;;;;;;;;;20.80;80.30;;;;;;4992883;28;19913;-77
2021/01/20 08:03:34;;;;;;;;;;;20.80;80.50;;;;;;4992968;28;19917;-78
2021/01/20 08:06:10;;;;;;;;;;;20.80;80.50;;;;;;4993115;28;19910;-82
2021/01/20 08:08:49;;;;;;;;;;;20.70;80.30;;;;;;4994124;28;19914;-83
2021/01/20 08:11:16;;;;;;;;;;;20.70;80.50;;;;;;4993455;28;20031;-77
2021/01/20 08:13:43;;;;;;;;;;;20.70;81.00;;;;;;4998775;28;19965;-77
2021/01/20 08:16:10;;;;;;;;;;;20.70;81.00;;;;;;5007334;28;19914;-81
2021/01/20 08:18:37;;;;;;;;;;;20.80;81.50;;;;;;5013875;28;19916;-81
2021/01/20 08:21:06;;;;;;;;;;;20.80;82.10;;;;;;5018870;28;19929;-82
2021/01/20 08:24:05;;;;;;;;;;;20.70;82.20;;;;;;5006344;28;20411;-81
2021/01/20 08:26:33;;;;;;;;;;;20.70;81.90;;;;;;4968452;28;19996;-79
2021/01/20 08:29:07;;;;;;;;;;;20.70;81.70;;;;;;4974001;28;19914;-78
2021/01/20 08:31:34;;;;;;;;;;;20.60;82.20;;;;;;4979081;28;20012;-77
2021/01/20 08:34:20;;;;;;;;;;;20.60;82.80;;;;;;4988965;28;19914;-78
2021/01/20 08:36:57;;;;;;;;;;;20.60;82.50;;;;;;4986457;28;19966;-81
2021/01/20 08:39:24;;;;;;;;;;;20.60;82.40;;;;;;4990363;28;20009;-80
2021/01/20 08:42:12;;;;;;;;;;;20.50;82.60;;;;;;4991107;28;21311;-80
2021/01/20 08:44:39;;;;;;;;;;;20.50;83.10;;;;;;4986449;28;19918;-78
2021/01/20 08:47:05;;;;;;;;;;;20.50;82.80;;;;;;4972204;28;20001;-82
2021/01/20 08:49:32;;;;;;;;;;;20.40;82.20;;;;;;4992353;28;19918;-81
2021/01/20 08:51:59;;;;;;;;;;;20.30;83.40;;;;;;4991665;28;19961;-82
2021/01/20 08:54:25;;;;;;;;;;;20.30;82.70;;;;;;4996298;28;19932;-81
2021/01/20 08:56:52;;;;;;;;;;;20.30;83.50;;;;;;5009106;28;19937;-81
2021/01/20 08:59:19;;;;;;;;;;;20.30;83.00;;;;;;5002665;28;19922;-80
2021/01/20 09:01:46;;;;;;;;;;;20.30;83.50;;;;;;4999789;28;19913;-80
2021/01/20 09:04:13;;;;;;;;;;;20.30;83.90;;;;;;5016033;28;19933;-78
2021/01/20 09:06:40;;;;;;;;;;;20.30;84.00;;;;;;5010565;28;20360;-77
2021/01/20 09:09:07;;;;;;;;;;;20.30;84.10;;;;;;5002496;28;19914;-77
2021/01/20 09:11:40;;;;;;;;;;;20.20;84.40;;;;;;4998570;28;19922;-84
2021/01/20 09:14:07;;;;;;;;;;;20.20;84.50;;;;;;4997458;28;19914;-78
2021/01/20 09:16:34;;;;;;;;;;;20.20;85.40;;;;;;5009302;28;19917;-80
2021/01/20 09:19:01;;;;;;;;;;;20.20;84.60;;;;;;5010837;28;19917;-79
2021/01/20 09:21:28;;;;;;;;;;;20.20;84.70;;;;;;5007833;28;19973;-78
2021/01/20 09:23:55;;;;;;;;;;;20.20;84.40;;;;;;4987084;28;19914;-80
2021/01/20 09:26:22;;;;;;;;;;;20.10;84.90;;;;;;4996869;28;19910;-81
2021/01/20 09:28:48;;;;;;;;;;;20.10;85.20;;;;;;4993933;28;19916;-79
2021/01/20 09:31:16;;;;;;;;;;;20.00;85.80;;;;;;4984528;28;19924;-78
2021/01/20 09:33:43;;;;;;;;;;;20.00;85.00;;;;;;4990919;28;19909;-81
2021/01/20 09:36:09;;;;;;;;;;;20.00;85.20;;;;;;4984633;28;19914;-78
2021/01/20 09:38:37;;;;;;;;;;;20.00;86.20;;;;;;4994508;28;19921;-78
2021/01/20 09:41:05;;;;;;;;;;;19.90;85.50;;;;;;4995104;28;19918;-78
2021/01/20 09:43:33;;;;;;;;;;;19.90;85.50;;;;;;4995504;28;19914;-78
2021/01/20 09:45:59;;;;;;;;;;;19.90;85.90;;;;;;4994063;28;19977;-79
2021/01/20 09:48:26;;;;;;;;;;;19.90;86.20;;;;;;4994144;28;20025;-77
2021/01/20 09:50:52;;;;;;;;;;;19.80;86.50;;;;;;4994160;28;19965;-79
2021/01/20 09:53:19;;;;;;;;;;;19.80;86.60;;;;;;4975452;28;20311;-79
2021/01/20 09:55:46;;;;;;;;;;;19.80;86.90;;;;;;4992933;28;20348;-78
2021/01/20 09:58:12;;;;;;;;;;;19.70;86.50;;;;;;4993485;28;19917;-79
2021/01/20 10:00:39;;;;;;;;;;;19.70;87.30;;;;;;4992835;28;19918;-77
2021/01/20 10:03:10;;;;;;;;;;;19.60;87.20;;;;;;4992925;28;19921;-79
2021/01/20 10:05:37;;;;;;;;;;;19.60;87.20;;;;;;4988529;28;19925;-80
2021/01/20 10:08:04;;;;;;;;;;;19.60;87.70;;;;;;4993191;28;19918;-80
2021/01/20 10:10:31;;;;;;;;;;;19.50;87.90;;;;;;4992172;28;19995;-80
2021/01/20 10:12:57;;;;;;;;;;;19.50;88.20;;;;;;4993039;28;20592;-80
2021/01/20 10:15:25;;;;;;;;;;;19.40;88.60;;;;;;4992229;28;20060;-79
2021/01/20 10:17:53;;;;;;;;;;;19.40;88.70;;;;;;4993055;28;19996;-81
2021/01/20 10:20:19;;;;;;;;;;;19.40;89.20;;;;;;4993126;28;19918;-80
2021/01/20 10:22:46;;;;;;;;;;;19.40;89.20;;;;;;4992308;28;19929;-78
2021/01/20 10:25:13;;;;;;;;;;;19.40;89.50;;;;;;4992785;28;20051;-81
2021/01/20 10:27:40;;;;;;;;;;;19.40;89.30;;;;;;4992086;28;20080;-79
2021/01/20 10:30:07;;;;;;;;;;;19.40;89.00;;;;;;4993179;28;20381;-79
2021/01/20 10:32:33;;;;;;;;;;;19.40;89.50;;;;;;4982356;28;19921;-80
2021/01/20 10:35:00;;;;;;;;;;;19.40;89.70;;;;;;4992895;28;19921;-79
2021/01/20 10:37:27;;;;;;;;;;;19.40;90.00;;;;;;4990842;28;20020;-79
2021/01/20 10:39:53;;;;;;;;;;;19.40;90.10;;;;;;4993001;28;19917;-80
2021/01/20 10:42:20;;;;;;;;;;;19.30;90.10;;;;;;4991605;28;20012;-78
2021/01/20 10:44:47;;;;;;;;;;;19.30;90.20;;;;;;4990597;28;19914;-77
2021/01/20 10:47:14;;;;;;;;;;;19.30;90.10;;;;;;4985906;28;19917;-77
2021/01/20 10:49:41;;;;;;;;;;;19.30;90.30;;;;;;4992634;28;19956;-78
2021/01/20 10:52:07;;;;;;;;;;;19.30;90.10;;;;;;4992416;28;19920;-78
2021/01/20 10:54:34;;;;;;;;;;;19.30;90.50;;;;;;4991953;28;20386;-78
2021/01/20 10:57:03;;;;;;;;;;;19.20;90.50;;;;;;4993293;28;19909;-79
2021/01/20 10:59:40;;;;;;;;;;;19.20;90.40;;;;;;4993225;28;19920;-79
2021/01/20 11:02:08;;;;;;;;;;;19.20;90.30;;;;;;4993042;28;19918;-78
2021/01/20 11:04:34;;;;;;;;;;;19.20;90.40;;;;;;4991578;28;19914;-77
2021/01/20 11:07:01;;;;;;;;;;;19.10;90.60;;;;;;4992089;28;19928;-77
2021/01/20 11:09:30;;;;;;;;;;;19.10;90.70;;;;;;4992787;28;19914;-76
2021/01/20 11:11:57;;;;;;;;;;;19.10;90.80;;;;;;4992140;28;20299;-77
2021/01/20 11:14:25;;;;;;;;;;;19.10;90.70;;;;;;4992172;28;19918;-77
2021/01/20 11:16:52;;;;;;;;;;;19.10;90.70;;;;;;4992193;28;19917;-79
2021/01/20 11:19:19;;;;;;;;;;;19.10;90.90;;;;;;4992749;28;20253;-79
2021/01/20 11:21:46;;;;;;;;;;;19.10;90.90;;;;;;4995126;28;19983;-79
2021/01/20 11:24:17;;;;;;;;;;;19.10;91.10;;;;;;5005874;28;19920;-80
2021/01/20 11:26:47;;;;;;;;;;;19.10;90.90;;;;;;5003592;28;19925;-78
2021/01/20 11:29:14;;;;;;;;;;;19.10;90.80;;;;;;5001820;28;19914;-79
2021/01/20 11:31:41;;;;;;;;;;;19.10;91.00;;;;;;5003672;28;20299;-79
2021/01/20 11:34:08;;;;;;;;;;;19.00;91.00;;;;;;5004329;28;20008;-79
2021/01/20 11:36:38;;;;;;;;;;;19.00;90.80;;;;;;5007486;28;19980;-80
2021/01/20 11:39:05;;;;;;;;;;;19.00;90.90;;;;;;4995656;28;19914;-79
2021/01/20 11:41:32;;;;;;;;;;;19.00;91.00;;;;;;4986475;28;19909;-81
2021/01/20 11:43:59;;;;;;;;;;;18.90;90.90;;;;;;4988313;28;19914;-78
2021/01/20 11:46:26;;;;;;;;;;;18.90;90.90;;;;;;4993807;28;19918;-79
2021/01/20 11:48:56;;;;;;;;;;;18.90;90.90;;;;;;4994311;28;19924;-79
2021/01/20 11:51:22;;;;;;;;;;;18.90;90.90;;;;;;4974808;28;19918;-78
2021/01/20 11:53:49;;;;;;;;;;;18.90;91.20;;;;;;4973989;28;19922;-77
2021/01/20 11:56:17;;;;;;;;;;;18.90;91.00;;;;;;4987781;28;19921;-77
2021/01/20 11:58:44;;;;;;;;;;;18.80;91.10;;;;;;4979320;28;19918;-77
2021/01/20 12:01:11;;;;;;;;;;;18.80;91.10;;;;;;4985151;28;19945;-80
2021/01/20 12:03:37;;;;;;;;;;;18.80;91.20;;;;;;4991246;28;20407;-79
2021/01/20 12:06:04;;;;;;;;;;;18.80;91.20;;;;;;4991303;28;19953;-75
2021/01/20 12:08:31;;;;;;;;;;;18.80;91.20;;;;;;4987185;28;19928;-79
2021/01/20 12:10:58;;;;;;;;;;;18.90;91.60;;;;;;4974007;28;19918;-79
2021/01/20 12:13:24;;;;;;;;;;;19.00;91.60;;;;;;4991935;28;20381;-79
2021/01/20 12:15:51;;;;;;;;;;;19.00;91.50;;;;;;4991241;28;19921;-80
2021/01/20 12:18:18;;;;;;;;;;;19.00;91.50;;;;;;4991321;28;19974;-82
2021/01/20 12:20:44;;;;;;;;;;;18.90;91.50;;;;;;4991053;28;19914;-78
2021/01/20 12:23:11;;;;;;;;;;;18.80;91.50;;;;;;4988116;28;19918;-78
2021/01/20 12:25:38;;;;;;;;;;;18.80;91.40;;;;;;4990691;28;20324;-78
2021/01/20 12:28:04;;;;;;;;;;;18.80;91.50;;;;;;4991246;28;19917;-79
2021/01/20 12:30:31;;;;;;;;;;;18.70;91.80;;;;;;4990979;28;20348;-77
2021/01/20 12:32:58;;;;;;;;;;;18.70;92.00;;;;;;4989753;28;19918;-78
2021/01/20 12:35:24;;;;;;;;;;;18.60;92.10;;;;;;4973293;28;19914;-77
2021/01/20 12:37:51;;;;;;;;;;;18.60;92.40;;;;;;4990828;28;19914;-78
2021/01/20 12:40:18;;;;;;;;;;;18.60;92.50;;;;;;4991423;28;19914;-78
2021/01/20 12:42:44;;;;;;;;;;;18.70;92.30;;;;;;4991071;28;19914;-78
2021/01/20 12:45:11;;;;;;;;;;;18.60;92.20;;;;;;4990022;28;20390;-78
2021/01/20 12:47:38;;;;;;;;;;;18.60;92.40;;;;;;4987772;28;20379;-78
2021/01/20 12:50:05;;;;;;;;;;;18.60;92.60;;;;;;4989321;28;19964;-77
2021/01/20 12:52:32;;;;;;;;;;;18.60;92.70;;;;;;4990238;28;20383;-77
2021/01/20 12:54:58;;;;;;;;;;;18.70;92.90;;;;;;4990438;28;19972;-78
2021/01/20 12:57:25;;;;;;;;;;;18.70;92.80;;;;;;4988207;28;19910;-77
2021/01/20 12:59:53;;;;;;;;;;;18.60;93.40;;;;;;4985473;28;20265;-76
2021/01/20 13:02:20;;;;;;;;;;;18.70;93.70;;;;;;4984763;28;19956;-77
2021/01/20 13:04:46;;;;;;;;;;;18.70;93.60;;;;;;4987133;28;19913;-78
2021/01/20 13:07:13;;;;;;;;;;;18.60;93.60;;;;;;4992805;28;19910;-79
2021/01/20 13:09:41;;;;;;;;;;;18.60;93.60;;;;;;4995038;28;19968;-78
2021/01/20 13:12:08;;;;;;;;;;;18.70;93.50;;;;;;4995139;28;19936;-78
2021/01/20 13:14:35;;;;;;;;;;;18.60;93.50;;;;;;4995083;28;19920;-78
2021/01/20 13:17:01;;;;;;;;;;;18.70;93.40;;;;;;4994264;28;19910;-78
2021/01/20 13:19:28;;;;;;;;;;;18.70;93.40;;;;;;4994904;28;19917;-76
2021/01/20 13:21:55;;;;;;;;;;;18.70;93.00;;;;;;4994919;28;19933;-78
2021/01/20 13:24:21;;;;;;;;;;;18.70;93.20;;;;;;4983186;28;19910;-77
2021/01/20 13:26:48;;;;;;;;;;;18.70;93.30;;;;;;4990292;28;19913;-76
2021/01/20 13:29:15;;;;;;;;;;;18.60;93.20;;;;;;4994574;28;20000;-76
2021/01/20 13:31:42;;;;;;;;;;;18.50;93.50;;;;;;4987208;28;19918;-77
2021/01/20 13:34:09;;;;;;;;;;;18.50;93.50;;;;;;4975232;28;20439;-77
2021/01/20 13:36:35;;;;;;;;;;;18.40;93.60;;;;;;4975165;28;19914;-77
2021/01/20 13:39:03;;;;;;;;;;;18.40;93.70;;;;;;4988381;28;19921;-77
2021/01/20 13:41:30;;;;;;;;;;;18.40;93.70;;;;;;4992142;28;19917;-78
2021/01/20 13:43:56;;;;;;;;;;;18.40;93.90;;;;;;4987478;28;19917;-78
2021/01/20 13:46:23;;;;;;;;;;;18.50;93.80;;;;;;4992217;28;20284;-78
2021/01/20 13:48:50;;;;;;;;;;;18.70;93.80;;;;;;4989902;28;20036;-78
2021/01/20 13:51:17;;;;;;;;;;;18.60;93.60;;;;;;4987985;28;19918;-77
2021/01/20 13:53:43;;;;;;;;;;;18.50;93.80;;;;;;4991208;28;19962;-77
2021/01/20 13:56:10;;;;;;;;;;;18.50;93.80;;;;;;4988323;28;19914;-77
2021/01/20 13:58:37;;;;;;;;;;;18.60;93.70;;;;;;4991892;28;20380;-79
2021/01/20 14:01:03;;;;;;;;;;;18.50;93.80;;;;;;4993912;28;19921;-77
2021/01/20 14:03:30;;;;;;;;;;;18.30;94.00;;;;;;4973074;28;19913;-78
2021/01/20 14:05:57;;;;;;;;;;;18.20;94.30;;;;;;4993109;28;19984;-77
2021/01/20 14:08:23;;;;;;;;;;;18.20;94.50;;;;;;4994132;28;19917;-78
2021/01/20 14:10:50;;;;;;;;;;;18.20;94.60;;;;;;4993825;28;19940;-77
2021/01/20 14:13:16;;;;;;;;;;;18.10;94.50;;;;;;4993891;28;19949;-77
2021/01/20 14:15:43;;;;;;;;;;;18.20;94.50;;;;;;4992342;28;19917;-78
2021/01/20 14:18:11;;;;;;;;;;;18.20;94.50;;;;;;4990171;28;19925;-77
2021/01/20 14:20:38;;;;;;;;;;;18.20;94.40;;;;;;4991066;28;19910;-78
2021/01/20 14:23:05;;;;;;;;;;;18.30;94.00;;;;;;4991073;28;19941;-78
2021/01/20 14:25:31;;;;;;;;;;;18.40;93.80;;;;;;4963379;28;20376;-77
2021/01/20 14:27:58;;;;;;;;;;;18.40;93.80;;;;;;4989972;28;19910;-77
2021/01/20 14:30:25;;;;;;;;;;;18.30;93.50;;;;;;4991414;28;19918;-78
2021/01/20 14:32:51;;;;;;;;;;;18.30;93.60;;;;;;4993696;28;19914;-77
2021/01/20 14:35:20;;;;;;;;;;;18.30;93.30;;;;;;4991322;28;19914;-78
2021/01/20 14:37:47;;;;;;;;;;;18.30;93.30;;;;;;4993559;28;19956;-77
2021/01/20 14:40:13;;;;;;;;;;;18.30;93.40;;;;;;4993653;28;19949;-78
2021/01/20 14:42:40;;;;;;;;;;;18.30;93.50;;;;;;4993275;28;19945;-78
2021/01/20 14:45:07;;;;;;;;;;;18.20;93.40;;;;;;4992947;28;19964;-77
2021/01/20 14:47:34;;;;;;;;;;;18.30;93.40;;;;;;4992930;28;19921;-76
2021/01/20 14:50:00;;;;;;;;;;;18.20;93.20;;;;;;4993446;28;19918;-79
2021/01/20 14:52:27;;;;;;;;;;;18.20;93.10;;;;;;4994718;28;19972;-78
2021/01/20 14:54:53;;;;;;;;;;;18.20;93.10;;;;;;4995859;28;19909;-77
2021/01/20 14:57:20;;;;;;;;;;;18.20;93.10;;;;;;4994629;28;19957;-77